AMU127 ZSNJ-VMMC
Flight info
| Callsign | AMU127 |
|---|---|
| Flight time | N/A |
| Altitude | 32100 |
| Route | TES61X TESIG A470 BEBEM/N0465F321 A470 DOTMI DCT SAMMI J101 SMT |
| Aircraft | A320/M-SDE3FGHIRWY/LB1 |
Departure
| Time | 2026-04-20 13:05 |
|---|---|
| Airport | Nanjing Lukou International Airport (ZSNJ) |
Arrival
| Time | N/A |
|---|---|
| Airport | Macau International Airport (VMMC) |
| Time | Latitude | Longitude | Altitude | Speed | Heading |
|---|---|---|---|---|---|
| 2026-04-20 12:42 | 31.72931 | 118.86839 | 58 ft | 0 kts | 328° |
| 2026-04-20 12:54 | 31.72922 | 118.86846 | 53 ft | 4 kts | 328° |
| 2026-04-20 12:55 | 31.72899 | 118.86863 | 52 ft | 4 kts | 328° |
| 2026-04-20 12:55 | 31.72878 | 118.86880 | 57 ft | 4 kts | 313° |
| 2026-04-20 12:55 | 31.72868 | 118.86904 | 54 ft | 4 kts | 258° |
| 2026-04-20 12:55 | 31.72878 | 118.86932 | 55 ft | 4 kts | 237° |
| 2026-04-20 12:56 | 31.72881 | 118.86937 | 51 ft | 1 kts | 238° |
| 2026-04-20 12:58 | 31.72877 | 118.86929 | 55 ft | 4 kts | 238° |
| 2026-04-20 12:58 | 31.72850 | 118.86880 | 55 ft | 10 kts | 238° |
| 2026-04-20 12:58 | 31.72802 | 118.86789 | 53 ft | 15 kts | 238° |
| 2026-04-20 12:58 | 31.72744 | 118.86681 | 56 ft | 17 kts | 238° |
| 2026-04-20 12:59 | 31.72680 | 118.86560 | 54 ft | 18 kts | 238° |
| 2026-04-20 12:59 | 31.72688 | 118.86437 | 51 ft | 18 kts | 326° |
| 2026-04-20 12:59 | 31.72799 | 118.86356 | 56 ft | 20 kts | 328° |
| 2026-04-20 12:59 | 31.72922 | 118.86267 | 58 ft | 22 kts | 328° |
| 2026-04-20 13:00 | 31.73056 | 118.86171 | 54 ft | 23 kts | 329° |
| 2026-04-20 13:00 | 31.73182 | 118.86075 | 56 ft | 21 kts | 328° |
| 2026-04-20 13:00 | 31.73313 | 118.85980 | 56 ft | 23 kts | 328° |
| 2026-04-20 13:00 | 31.73453 | 118.85876 | 54 ft | 25 kts | 327° |
| 2026-04-20 13:01 | 31.73603 | 118.85765 | 54 ft | 26 kts | 328° |
| 2026-04-20 13:01 | 31.73709 | 118.85654 | 57 ft | 16 kts | 273° |
| 2026-04-20 13:01 | 31.73654 | 118.85538 | 53 ft | 17 kts | 237° |
| 2026-04-20 13:01 | 31.73586 | 118.85414 | 54 ft | 19 kts | 238° |
| 2026-04-20 13:02 | 31.73513 | 118.85275 | 51 ft | 21 kts | 238° |
| 2026-04-20 13:02 | 31.73433 | 118.85123 | 52 ft | 23 kts | 238° |
| 2026-04-20 13:02 | 31.73348 | 118.84966 | 54 ft | 18 kts | 236° |
| 2026-04-20 13:02 | 31.73278 | 118.84837 | 53 ft | 20 kts | 238° |
| 2026-04-20 13:03 | 31.73230 | 118.84707 | 55 ft | 15 kts | 292° |
| 2026-04-20 13:03 | 31.73298 | 118.84647 | 57 ft | 10 kts | 329° |
| 2026-04-20 13:03 | 31.73363 | 118.84617 | 56 ft | 10 kts | 18° |
| 2026-04-20 13:03 | 31.73403 | 118.84675 | 51 ft | 0 kts | 58° |
| 2026-04-20 13:04 | 31.73430 | 118.84726 | 51 ft | 31 kts | 58° |
| 2026-04-20 13:04 | 31.73676 | 118.85186 | 51 ft | 97 kts | 58° |
| 2026-04-20 13:04 | 31.74127 | 118.86023 | 54 ft | 143 kts | 58° |
| 2026-04-20 13:04 | 31.74712 | 118.87126 | 181 ft | 171 kts | 58° |
| 2026-04-20 13:05 | 31.75340 | 118.88315 | 844 ft | 171 kts | 58° |
| 2026-04-20 13:05 | 31.75966 | 118.89483 | 1595 ft | 168 kts | 59° |
| 2026-04-20 13:05 | 31.76583 | 118.90634 | 2305 ft | 165 kts | 59° |
| 2026-04-20 13:05 | 31.77193 | 118.91773 | 2908 ft | 164 kts | 59° |
| 2026-04-20 13:06 | 31.77804 | 118.92914 | 3406 ft | 170 kts | 58° |
| 2026-04-20 13:06 | 31.78474 | 118.94167 | 3643 ft | 192 kts | 58° |
| 2026-04-20 13:06 | 31.79225 | 118.95576 | 3895 ft | 213 kts | 58° |
| 2026-04-20 13:06 | 31.80024 | 118.97157 | 4184 ft | 236 kts | 67° |
| 2026-04-20 13:07 | 31.80165 | 118.99094 | 4772 ft | 247 kts | 107° |
| 2026-04-20 13:07 | 31.79237 | 119.00783 | 5411 ft | 253 kts | 144° |
| 2026-04-20 13:07 | 31.77616 | 119.01487 | 6107 ft | 252 kts | 183° |
| 2026-04-20 13:07 | 31.75914 | 119.01069 | 6849 ft | 252 kts | 204° |
| 2026-04-20 13:08 | 31.74313 | 119.00216 | 7619 ft | 254 kts | 209° |
| 2026-04-20 13:08 | 31.72725 | 118.99286 | 8416 ft | 256 kts | 209° |
| 2026-04-20 13:08 | 31.71105 | 118.98400 | 9241 ft | 258 kts | 207° |
| 2026-04-20 13:08 | 31.69378 | 118.97752 | 10027 ft | 265 kts | 191° |
| 2026-04-20 13:09 | 31.67508 | 118.97818 | 10668 ft | 277 kts | 171° |
| 2026-04-20 13:09 | 31.65660 | 118.98737 | 10998 ft | 302 kts | 148° |
| 2026-04-20 13:09 | 31.63898 | 119.00249 | 11185 ft | 326 kts | 146° |
| 2026-04-20 13:09 | 31.62011 | 119.01888 | 11345 ft | 349 kts | 146° |
| 2026-04-20 13:10 | 31.60000 | 119.03625 | 11605 ft | 366 kts | 146° |
| 2026-04-20 13:10 | 31.57927 | 119.05409 | 12181 ft | 373 kts | 146° |
| 2026-04-20 13:10 | 31.56513 | 119.06636 | 12627 ft | 376 kts | 146° |
| 2026-04-20 13:10 | 31.54403 | 119.08485 | 13308 ft | 381 kts | 145° |
| 2026-04-20 13:11 | 31.52277 | 119.10359 | 13992 ft | 385 kts | 145° |
| 2026-04-20 13:11 | 31.50127 | 119.12255 | 14621 ft | 388 kts | 146° |
| 2026-04-20 13:11 | 31.47957 | 119.14164 | 15246 ft | 392 kts | 146° |
| 2026-04-20 13:11 | 31.45739 | 119.16110 | 15859 ft | 395 kts | 146° |
| 2026-04-20 13:12 | 31.43534 | 119.18036 | 16440 ft | 398 kts | 146° |
| 2026-04-20 13:12 | 31.41275 | 119.20004 | 17050 ft | 400 kts | 147° |
| 2026-04-20 13:12 | 31.39037 | 119.21953 | 17650 ft | 403 kts | 147° |
| 2026-04-20 13:12 | 31.36781 | 119.23919 | 18229 ft | 406 kts | 147° |
| 2026-04-20 13:13 | 31.34507 | 119.25900 | 18735 ft | 409 kts | 147° |
| 2026-04-20 13:13 | 31.32219 | 119.27895 | 19242 ft | 412 kts | 147° |
| 2026-04-20 13:13 | 31.29911 | 119.29908 | 19669 ft | 416 kts | 147° |
| 2026-04-20 13:13 | 31.27590 | 119.31932 | 19808 ft | 416 kts | 147° |
| 2026-04-20 13:14 | 31.25269 | 119.33957 | 19847 ft | 416 kts | 147° |
| 2026-04-20 13:14 | 31.22948 | 119.35980 | 19845 ft | 416 kts | 147° |
| 2026-04-20 13:14 | 31.20616 | 119.38007 | 20136 ft | 420 kts | 147° |
| 2026-04-20 13:14 | 31.18234 | 119.40071 | 20703 ft | 422 kts | 147° |
| 2026-04-20 13:15 | 31.15869 | 119.42130 | 21221 ft | 426 kts | 148° |
| 2026-04-20 13:15 | 31.13484 | 119.44211 | 21712 ft | 430 kts | 148° |
| 2026-04-20 13:15 | 31.11085 | 119.46310 | 22183 ft | 433 kts | 148° |
| 2026-04-20 13:15 | 31.08669 | 119.48429 | 22679 ft | 436 kts | 148° |
| 2026-04-20 13:16 | 31.06235 | 119.50560 | 23140 ft | 439 kts | 148° |
| 2026-04-20 13:16 | 31.03778 | 119.52703 | 23590 ft | 443 kts | 148° |
| 2026-04-20 13:16 | 31.01304 | 119.54859 | 23988 ft | 446 kts | 148° |
| 2026-04-20 13:16 | 30.98813 | 119.57030 | 24394 ft | 448 kts | 148° |
| 2026-04-20 13:17 | 30.96305 | 119.59208 | 24772 ft | 451 kts | 149° |
| 2026-04-20 13:17 | 30.93777 | 119.61399 | 25136 ft | 455 kts | 149° |
| 2026-04-20 13:17 | 30.91231 | 119.63609 | 25495 ft | 458 kts | 149° |
| 2026-04-20 13:17 | 30.88666 | 119.65834 | 25849 ft | 462 kts | 149° |
| 2026-04-20 13:18 | 30.86083 | 119.68077 | 26214 ft | 465 kts | 149° |
| 2026-04-20 13:18 | 30.83482 | 119.70335 | 26575 ft | 468 kts | 149° |
| 2026-04-20 13:18 | 30.80859 | 119.72611 | 26928 ft | 472 kts | 149° |
| 2026-04-20 13:18 | 30.78221 | 119.74898 | 27272 ft | 475 kts | 149° |
| 2026-04-20 13:19 | 30.75562 | 119.77198 | 27604 ft | 478 kts | 149° |
| 2026-04-20 13:19 | 30.72884 | 119.79507 | 28003 ft | 479 kts | 149° |
| 2026-04-20 13:19 | 30.70211 | 119.81814 | 28463 ft | 479 kts | 149° |
| 2026-04-20 13:19 | 30.67540 | 119.84118 | 28940 ft | 478 kts | 149° |
| 2026-04-20 13:20 | 30.64865 | 119.86417 | 29414 ft | 478 kts | 149° |
| 2026-04-20 13:20 | 30.62186 | 119.88711 | 29860 ft | 479 kts | 149° |
| 2026-04-20 13:20 | 30.59507 | 119.91004 | 30306 ft | 479 kts | 149° |
| 2026-04-20 13:20 | 30.56840 | 119.93329 | 30725 ft | 479 kts | 148° |
| 2026-04-20 13:21 | 30.54198 | 119.95680 | 31148 ft | 479 kts | 148° |
| 2026-04-20 13:21 | 30.51562 | 119.98034 | 31582 ft | 476 kts | 151° |
| 2026-04-20 13:21 | 30.48745 | 119.99950 | 31972 ft | 464 kts | 162° |
| 2026-04-20 13:21 | 30.45687 | 120.01155 | 32190 ft | 452 kts | 175° |
| 2026-04-20 13:22 | 30.42596 | 120.01503 | 32243 ft | 445 kts | 188° |
| 2026-04-20 13:22 | 30.36596 | 120.00128 | 32238 ft | 434 kts | 206° |
| 2026-04-20 13:23 | 30.31293 | 119.96993 | 32234 ft | 428 kts | 215° |
| 2026-04-20 13:23 | 30.26114 | 119.93575 | 32233 ft | 428 kts | 215° |
| 2026-04-20 13:24 | 30.20949 | 119.90139 | 32228 ft | 428 kts | 215° |
| 2026-04-20 13:24 | 30.15789 | 119.86712 | 32236 ft | 428 kts | 215° |
| 2026-04-20 13:25 | 30.10622 | 119.83290 | 32238 ft | 428 kts | 215° |
| 2026-04-20 13:25 | 30.05458 | 119.79864 | 32231 ft | 428 kts | 215° |
| 2026-04-20 13:26 | 30.00304 | 119.76415 | 32221 ft | 428 kts | 215° |
| 2026-04-20 13:26 | 29.95170 | 119.72950 | 32220 ft | 427 kts | 215° |
| 2026-04-20 13:27 | 29.90030 | 119.69496 | 32220 ft | 428 kts | 215° |
| 2026-04-20 13:27 | 29.84523 | 119.66782 | 32214 ft | 439 kts | 199° |
| 2026-04-20 13:28 | 29.78365 | 119.66105 | 32191 ft | 447 kts | 188° |
| 2026-04-20 13:28 | 29.72147 | 119.65759 | 32197 ft | 447 kts | 189° |
| 2026-04-20 13:29 | 29.65896 | 119.65313 | 32195 ft | 447 kts | 189° |
| 2026-04-20 13:29 | 29.59687 | 119.64890 | 32196 ft | 448 kts | 188° |
| 2026-04-20 13:30 | 29.53447 | 119.64722 | 32177 ft | 449 kts | 187° |
| 2026-04-20 13:30 | 29.47217 | 119.64464 | 32178 ft | 447 kts | 188° |
| 2026-04-20 13:31 | 29.41008 | 119.64052 | 32184 ft | 447 kts | 189° |
| 2026-04-20 13:31 | 29.34755 | 119.63625 | 32176 ft | 447 kts | 189° |
| 2026-04-20 13:32 | 29.28544 | 119.63239 | 32162 ft | 447 kts | 188° |
| 2026-04-20 13:32 | 29.22371 | 119.62871 | 32163 ft | 447 kts | 188° |
| 2026-04-20 13:33 | 29.16109 | 119.62486 | 32169 ft | 448 kts | 188° |
| 2026-04-20 13:33 | 29.09892 | 119.62109 | 32167 ft | 447 kts | 188° |
| 2026-04-20 13:34 | 29.03674 | 119.61732 | 32149 ft | 448 kts | 188° |
| 2026-04-20 13:34 | 28.97457 | 119.61338 | 32163 ft | 448 kts | 188° |
| 2026-04-20 13:35 | 28.91255 | 119.60947 | 32172 ft | 448 kts | 188° |
| 2026-04-20 13:35 | 28.85031 | 119.60562 | 32170 ft | 448 kts | 188° |
| 2026-04-20 13:36 | 28.78763 | 119.60172 | 32158 ft | 448 kts | 188° |
| 2026-04-20 13:36 | 28.72539 | 119.59790 | 32163 ft | 448 kts | 188° |
| 2026-04-20 13:37 | 28.66308 | 119.59410 | 32164 ft | 448 kts | 188° |
| 2026-04-20 13:37 | 28.60074 | 119.59022 | 32164 ft | 448 kts | 188° |
| 2026-04-20 13:38 | 28.53846 | 119.58630 | 32155 ft | 448 kts | 188° |
| 2026-04-20 13:38 | 28.47626 | 119.58241 | 32157 ft | 447 kts | 187° |
| 2026-04-20 13:39 | 28.42987 | 119.57953 | 32169 ft | 448 kts | 187° |
| 2026-04-20 13:39 | 28.36770 | 119.57610 | 32162 ft | 447 kts | 187° |
| 2026-04-20 13:40 | 28.31557 | 119.57341 | 32152 ft | 448 kts | 187° |
| 2026-04-20 13:40 | 28.25333 | 119.57009 | 32156 ft | 448 kts | 187° |
| 2026-04-20 13:41 | 28.19109 | 119.56665 | 32164 ft | 448 kts | 187° |
| 2026-04-20 13:41 | 28.12878 | 119.56316 | 32165 ft | 448 kts | 187° |
| 2026-04-20 13:42 | 28.06645 | 119.56017 | 32153 ft | 449 kts | 186° |
| 2026-04-20 13:42 | 27.97258 | 119.55920 | 32161 ft | 450 kts | 185° |
| 2026-04-20 13:43 | 27.90994 | 119.55878 | 32166 ft | 450 kts | 185° |
| 2026-04-20 13:43 | 27.84723 | 119.55839 | 32170 ft | 450 kts | 185° |
| 2026-04-20 13:44 | 27.78453 | 119.55808 | 32176 ft | 451 kts | 185° |
| 2026-04-20 13:44 | 27.72181 | 119.55774 | 32177 ft | 450 kts | 185° |
| 2026-04-20 13:45 | 27.65919 | 119.55734 | 32181 ft | 450 kts | 185° |
| 2026-04-20 13:45 | 27.59653 | 119.55700 | 32180 ft | 451 kts | 185° |
| 2026-04-20 13:46 | 27.53380 | 119.55663 | 32173 ft | 451 kts | 184° |
| 2026-04-20 13:46 | 27.47115 | 119.55623 | 32174 ft | 450 kts | 184° |
| 2026-04-20 13:47 | 27.40849 | 119.55595 | 32176 ft | 450 kts | 184° |
| 2026-04-20 13:47 | 27.34583 | 119.55587 | 32176 ft | 450 kts | 184° |
| 2026-04-20 13:48 | 27.28318 | 119.55588 | 32162 ft | 450 kts | 184° |
| 2026-04-20 13:48 | 27.22056 | 119.55573 | 32171 ft | 450 kts | 184° |
| 2026-04-20 13:49 | 27.15754 | 119.55529 | 32173 ft | 449 kts | 184° |
| 2026-04-20 13:49 | 27.09547 | 119.55476 | 32172 ft | 449 kts | 184° |
| 2026-04-20 13:50 | 27.03259 | 119.55429 | 32159 ft | 449 kts | 184° |
| 2026-04-20 13:50 | 26.97011 | 119.55392 | 32163 ft | 449 kts | 184° |
| 2026-04-20 13:51 | 26.90766 | 119.55364 | 32162 ft | 449 kts | 184° |
| 2026-04-20 13:51 | 26.84523 | 119.55322 | 32165 ft | 448 kts | 184° |
| 2026-04-20 13:52 | 26.78282 | 119.55282 | 32163 ft | 449 kts | 184° |
| 2026-04-20 13:52 | 26.72043 | 119.55241 | 32151 ft | 448 kts | 184° |
| 2026-04-20 13:53 | 26.65757 | 119.55193 | 32154 ft | 449 kts | 184° |
| 2026-04-20 13:53 | 26.59516 | 119.55150 | 32148 ft | 448 kts | 184° |
| 2026-04-20 13:54 | 26.53270 | 119.55117 | 32151 ft | 449 kts | 184° |
| 2026-04-20 13:54 | 26.47022 | 119.55090 | 32139 ft | 449 kts | 184° |
| 2026-04-20 13:55 | 26.40773 | 119.55051 | 32142 ft | 449 kts | 184° |
| 2026-04-20 13:55 | 26.34523 | 119.54995 | 32141 ft | 449 kts | 184° |
| 2026-04-20 13:56 | 26.28279 | 119.54915 | 32137 ft | 449 kts | 184° |
| 2026-04-20 13:56 | 26.22061 | 119.54616 | 32128 ft | 444 kts | 193° |
| 2026-04-20 13:57 | 26.16112 | 119.52817 | 32137 ft | 439 kts | 200° |
| 2026-04-20 13:57 | 26.10273 | 119.50819 | 32139 ft | 439 kts | 200° |
| 2026-04-20 13:58 | 26.04431 | 119.48830 | 32136 ft | 439 kts | 200° |
| 2026-04-20 13:58 | 25.98585 | 119.46849 | 32127 ft | 439 kts | 200° |
| 2026-04-20 13:59 | 25.92751 | 119.44871 | 32142 ft | 438 kts | 200° |
| 2026-04-20 13:59 | 25.86924 | 119.42889 | 32141 ft | 438 kts | 200° |
| 2026-04-20 14:00 | 25.81095 | 119.40907 | 32132 ft | 438 kts | 200° |
| 2026-04-20 14:00 | 25.75401 | 119.38612 | 32145 ft | 433 kts | 211° |
| 2026-04-20 14:01 | 25.70669 | 119.34601 | 32123 ft | 428 kts | 228° |
| 2026-04-20 14:01 | 25.66595 | 119.29779 | 32124 ft | 429 kts | 228° |
| 2026-04-20 14:02 | 25.62498 | 119.24965 | 32120 ft | 429 kts | 228° |
| 2026-04-20 14:02 | 25.58389 | 119.20156 | 32139 ft | 430 kts | 227° |
| 2026-04-20 14:03 | 25.54248 | 119.15309 | 32137 ft | 430 kts | 227° |
| 2026-04-20 14:03 | 25.50136 | 119.10493 | 32132 ft | 430 kts | 228° |
| 2026-04-20 14:04 | 25.45994 | 119.05648 | 32120 ft | 430 kts | 228° |
| 2026-04-20 14:04 | 25.41877 | 119.00834 | 32133 ft | 431 kts | 227° |
| 2026-04-20 14:05 | 25.37759 | 118.96027 | 32137 ft | 431 kts | 227° |
| 2026-04-20 14:05 | 25.33639 | 118.91220 | 32133 ft | 430 kts | 228° |
| 2026-04-20 14:06 | 25.29581 | 118.86361 | 32135 ft | 430 kts | 229° |
| 2026-04-20 14:06 | 25.25566 | 118.81454 | 32139 ft | 430 kts | 229° |
| 2026-04-20 14:07 | 25.21548 | 118.76560 | 32129 ft | 430 kts | 229° |
| 2026-04-20 14:07 | 25.17483 | 118.71647 | 32120 ft | 430 kts | 229° |
| 2026-04-20 14:08 | 25.13439 | 118.66781 | 32122 ft | 430 kts | 229° |
| 2026-04-20 14:08 | 25.09396 | 118.61914 | 32140 ft | 430 kts | 229° |
| 2026-04-20 14:09 | 25.05998 | 118.57917 | 32113 ft | 430 kts | 228° |
| 2026-04-20 14:09 | 25.01140 | 118.52391 | 32109 ft | 429 kts | 228° |
| 2026-04-20 14:10 | 24.97683 | 118.48472 | 32103 ft | 429 kts | 228° |
| 2026-04-20 14:10 | 24.93547 | 118.43743 | 32112 ft | 428 kts | 228° |
| 2026-04-20 14:11 | 24.89419 | 118.39011 | 32093 ft | 428 kts | 228° |
| 2026-04-20 14:11 | 24.85262 | 118.34254 | 32084 ft | 428 kts | 228° |
| 2026-04-20 14:12 | 24.81131 | 118.29534 | 32079 ft | 428 kts | 228° |
| 2026-04-20 14:12 | 24.77004 | 118.24819 | 32085 ft | 427 kts | 228° |
| 2026-04-20 14:13 | 24.72880 | 118.20112 | 32084 ft | 427 kts | 228° |
| 2026-04-20 14:13 | 24.68724 | 118.15381 | 32081 ft | 427 kts | 228° |
| 2026-04-20 14:14 | 24.64592 | 118.10686 | 32080 ft | 427 kts | 228° |
| 2026-04-20 14:14 | 24.60461 | 118.05999 | 32072 ft | 427 kts | 228° |
| 2026-04-20 14:15 | 24.56326 | 118.01310 | 32081 ft | 427 kts | 228° |
| 2026-04-20 14:15 | 24.52299 | 117.96548 | 32071 ft | 426 kts | 230° |
| 2026-04-20 14:16 | 24.48341 | 117.91687 | 32075 ft | 426 kts | 230° |
| 2026-04-20 14:16 | 24.44355 | 117.86815 | 32072 ft | 426 kts | 230° |
| 2026-04-20 14:17 | 24.40370 | 117.82005 | 32051 ft | 426 kts | 229° |
| 2026-04-20 14:17 | 24.36371 | 117.77204 | 32060 ft | 426 kts | 229° |
| 2026-04-20 14:18 | 24.32344 | 117.72369 | 32065 ft | 427 kts | 229° |
| 2026-04-20 14:18 | 24.28347 | 117.67557 | 32067 ft | 427 kts | 229° |
| 2026-04-20 14:19 | 24.24349 | 117.62752 | 32074 ft | 427 kts | 229° |
| 2026-04-20 14:19 | 24.20342 | 117.57950 | 32071 ft | 427 kts | 229° |
| 2026-04-20 14:20 | 24.16334 | 117.53155 | 32072 ft | 427 kts | 229° |
| 2026-04-20 14:20 | 24.12168 | 117.48517 | 32071 ft | 428 kts | 224° |
| 2026-04-20 14:21 | 24.07731 | 117.44165 | 32091 ft | 428 kts | 224° |
| 2026-04-20 14:21 | 24.03314 | 117.39828 | 32102 ft | 426 kts | 224° |
| 2026-04-20 14:22 | 23.98863 | 117.35461 | 32114 ft | 427 kts | 224° |
| 2026-04-20 14:22 | 23.94430 | 117.31127 | 32092 ft | 428 kts | 223° |
| 2026-04-20 14:23 | 23.89983 | 117.26776 | 32115 ft | 429 kts | 223° |
| 2026-04-20 14:23 | 23.85531 | 117.22421 | 32104 ft | 429 kts | 223° |
| 2026-04-20 14:24 | 23.81074 | 117.18077 | 32102 ft | 429 kts | 223° |
| 2026-04-20 14:24 | 23.76622 | 117.13734 | 32118 ft | 429 kts | 224° |
| 2026-04-20 14:25 | 23.72384 | 117.09181 | 32108 ft | 427 kts | 228° |
| 2026-04-20 14:25 | 23.68345 | 117.04427 | 32094 ft | 427 kts | 228° |
| 2026-04-20 14:26 | 23.64291 | 116.99686 | 32092 ft | 428 kts | 227° |
| 2026-04-20 14:26 | 23.60203 | 116.95020 | 32088 ft | 428 kts | 227° |
| 2026-04-20 14:27 | 23.56042 | 116.90312 | 32092 ft | 428 kts | 227° |
| 2026-04-20 14:27 | 23.51910 | 116.85632 | 32097 ft | 428 kts | 227° |
| 2026-04-20 14:28 | 23.47776 | 116.80954 | 32091 ft | 428 kts | 227° |
| 2026-04-20 14:28 | 23.43581 | 116.76350 | 32086 ft | 429 kts | 221° |
| 2026-04-20 14:29 | 23.38841 | 116.72376 | 32083 ft | 430 kts | 219° |
| 2026-04-20 14:29 | 23.34084 | 116.68424 | 32085 ft | 430 kts | 219° |
| 2026-04-20 14:30 | 23.29325 | 116.64468 | 32082 ft | 430 kts | 219° |
| 2026-04-20 14:30 | 23.24562 | 116.60517 | 32085 ft | 431 kts | 219° |
| 2026-04-20 14:31 | 23.19803 | 116.56565 | 32077 ft | 431 kts | 219° |
| 2026-04-20 14:31 | 23.15809 | 116.53259 | 32088 ft | 431 kts | 219° |